sensor_id;sensor_type;location;lat;lon;timestamp;pressure;altitude;pressure_sealevel;temperature;humidity
59337;BME280;45115;52.002;4.686;2022-11-18T00:00:49;99460.69;;;6.73;100.00
59337;BME280;45115;52.002;4.686;2022-11-18T00:03:16;99464.16;;;6.69;100.00
59337;BME280;45115;52.002;4.686;2022-11-18T00:05:43;99463.41;;;6.63;100.00
59337;BME280;45115;52.002;4.686;2022-11-18T00:08:17;99472.56;;;6.71;100.00
59337;BME280;45115;52.002;4.686;2022-11-18T00:10:45;99476.06;;;6.61;100.00
59337;BME280;45115;52.002;4.686;2022-11-18T00:13:12;99479.78;;;6.60;100.00
59337;BME280;45115;52.002;4.686;2022-11-18T00:15:59;99474.03;;;6.47;100.00
59337;BME280;45115;52.002;4.686;2022-11-18T00:18:26;99467.22;;;6.41;100.00
59337;BME280;45115;52.002;4.686;2022-11-18T00:20:53;99481.50;;;6.35;100.00
59337;BME280;45115;52.002;4.686;2022-11-18T00:23:19;99482.84;;;6.32;100.00
59337;BME280;45115;52.002;4.686;2022-11-18T00:25:47;99493.34;;;6.37;100.00
59337;BME280;45115;52.002;4.686;2022-11-18T00:28:14;99483.69;;;6.22;100.00
59337;BME280;45115;52.002;4.686;2022-11-18T00:30:41;99484.97;;;6.30;100.00
59337;BME280;45115;52.002;4.686;2022-11-18T00:33:07;99506.53;;;6.32;100.00
59337;BME280;45115;52.002;4.686;2022-11-18T00:35:34;99495.78;;;6.23;100.00
59337;BME280;45115;52.002;4.686;2022-11-18T00:38:01;99501.31;;;6.27;100.00
59337;BME280;45115;52.002;4.686;2022-11-18T00:40:28;99515.72;;;6.40;100.00
59337;BME280;45115;52.002;4.686;2022-11-18T00:42:56;99518.66;;;6.33;100.00
59337;BME280;45115;52.002;4.686;2022-11-18T00:45:22;99517.06;;;6.37;100.00
59337;BME280;45115;52.002;4.686;2022-11-18T00:47:49;99520.78;;;6.31;100.00
59337;BME280;45115;52.002;4.686;2022-11-18T00:50:16;99515.28;;;6.28;100.00
59337;BME280;45115;52.002;4.686;2022-11-18T00:52:43;99530.81;;;6.24;100.00
59337;BME280;45115;52.002;4.686;2022-11-18T00:55:09;99509.81;;;6.08;100.00
59337;BME280;45115;52.002;4.686;2022-11-18T00:57:36;99519.25;;;6.20;100.00
59337;BME280;45115;52.002;4.686;2022-11-18T01:00:06;99546.59;;;6.24;100.00
59337;BME280;45115;52.002;4.686;2022-11-18T01:02:33;99539.78;;;6.18;100.00
59337;BME280;45115;52.002;4.686;2022-11-18T01:05:00;99534.84;;;6.06;100.00
59337;BME280;45115;52.002;4.686;2022-11-18T01:07:26;99553.53;;;6.09;100.00
59337;BME280;45115;52.002;4.686;2022-11-18T01:09:53;99535.13;;;5.94;100.00
59337;BME280;45115;52.002;4.686;2022-11-18T01:12:20;99555.09;;;6.00;100.00
59337;BME280;45115;52.002;4.686;2022-11-18T01:15:07;99571.72;;;6.06;100.00
59337;BME280;45115;52.002;4.686;2022-11-18T01:17:34;99560.66;;;5.93;100.00
59337;BME280;45115;52.002;4.686;2022-11-18T01:20:00;99573.03;;;6.03;100.00
59337;BME280;45115;52.002;4.686;2022-11-18T01:22:27;99579.06;;;5.98;100.00
59337;BME280;45115;52.002;4.686;2022-11-18T01:24:54;99567.25;;;5.80;100.00
59337;BME280;45115;52.002;4.686;2022-11-18T01:27:20;99578.56;;;5.86;100.00
59337;BME280;45115;52.002;4.686;2022-11-18T01:29:47;99562.81;;;5.70;100.00
59337;BME280;45115;52.002;4.686;2022-11-18T01:32:15;99582.28;;;5.85;100.00
59337;BME280;45115;52.002;4.686;2022-11-18T01:34:42;99591.19;;;5.84;100.00
59337;BME280;45115;52.002;4.686;2022-11-18T01:37:09;99583.06;;;5.80;100.00
59337;BME280;45115;52.002;4.686;2022-11-18T01:39:36;99587.53;;;5.90;100.00
59337;BME280;45115;52.002;4.686;2022-11-18T01:42:03;99595.69;;;5.89;100.00
59337;BME280;45115;52.002;4.686;2022-11-18T01:44:52;99595.41;;;6.01;100.00
59337;BME280;45115;52.002;4.686;2022-11-18T01:47:23;99574.09;;;5.81;100.00
59337;BME280;45115;52.002;4.686;2022-11-18T01:49:51;99594.63;;;5.90;100.00
59337;BME280;45115;52.002;4.686;2022-11-18T01:52:19;99595.94;;;5.92;100.00
59337;BME280;45115;52.002;4.686;2022-11-18T01:54:50;99602.00;;;5.93;100.00
59337;BME280;45115;52.002;4.686;2022-11-18T01:57:20;99580.69;;;5.74;100.00
59337;BME280;45115;52.002;4.686;2022-11-18T01:59:50;99600.97;;;5.78;100.00
59337;BME280;45115;52.002;4.686;2022-11-18T02:02:20;99610.44;;;5.79;100.00
59337;BME280;45115;52.002;4.686;2022-11-18T02:04:49;99598.34;;;5.68;100.00
59337;BME280;45115;52.002;4.686;2022-11-18T02:07:17;99593.84;;;5.63;100.00
59337;BME280;45115;52.002;4.686;2022-11-18T02:09:45;99612.03;;;5.65;100.00
59337;BME280;45115;52.002;4.686;2022-11-18T02:12:12;99616.50;;;5.59;100.00
59337;BME280;45115;52.002;4.686;2022-11-18T02:14:41;99608.06;;;5.52;100.00
59337;BME280;45115;52.002;4.686;2022-11-18T02:17:15;99607.03;;;5.48;100.00
59337;BME280;45115;52.002;4.686;2022-11-18T02:20:14;99631.50;;;5.58;100.00
59337;BME280;45115;52.002;4.686;2022-11-18T02:23:16;99625.19;;;5.54;100.00
59337;BME280;45115;52.002;4.686;2022-11-18T02:25:58;99632.00;;;5.50;100.00
59337;BME280;45115;52.002;4.686;2022-11-18T02:28:35;99632.56;;;5.47;100.00
59337;BME280;45115;52.002;4.686;2022-11-18T02:31:07;99634.66;;;5.45;100.00
59337;BME280;45115;52.002;4.686;2022-11-18T02:33:40;99639.38;;;5.48;100.00
59337;BME280;45115;52.002;4.686;2022-11-18T02:36:13;99647.28;;;5.48;100.00
59337;BME280;45115;52.002;4.686;2022-11-18T02:38:45;99644.41;;;5.50;100.00
59337;BME280;45115;52.002;4.686;2022-11-18T02:41:18;99648.84;;;5.44;100.00
59337;BME280;45115;52.002;4.686;2022-11-18T02:43:50;99636.25;;;5.36;100.00
59337;BME280;45115;52.002;4.686;2022-11-18T02:46:26;99653.06;;;5.45;100.00
59337;BME280;45115;52.002;4.686;2022-11-18T02:48:54;99638.06;;;5.35;100.00
59337;BME280;45115;52.002;4.686;2022-11-18T02:51:24;99644.66;;;5.38;100.00
59337;BME280;45115;52.002;4.686;2022-11-18T02:53:55;99657.00;;;5.48;100.00
59337;BME280;45115;52.002;4.686;2022-11-18T02:56:25;99662.28;;;5.53;100.00
59337;BME280;45115;52.002;4.686;2022-11-18T02:58:52;99662.56;;;5.46;100.00
59337;BME280;45115;52.002;4.686;2022-11-18T03:01:25;99653.03;;;5.35;100.00
59337;BME280;45115;52.002;4.686;2022-11-18T03:03:52;99655.69;;;5.35;100.00
59337;BME280;45115;52.002;4.686;2022-11-18T03:06:26;99672.53;;;5.44;100.00
59337;BME280;45115;52.002;4.686;2022-11-18T03:08:59;99666.75;;;5.47;100.00
59337;BME280;45115;52.002;4.686;2022-11-18T03:11:30;99670.69;;;5.44;100.00
59337;BME280;45115;52.002;4.686;2022-11-18T03:14:07;99656.47;;;5.35;100.00
59337;BME280;45115;52.002;4.686;2022-11-18T03:16:39;99676.22;;;5.48;100.00
59337;BME280;45115;52.002;4.686;2022-11-18T03:19:17;99675.41;;;5.53;100.00
59337;BME280;45115;52.002;4.686;2022-11-18T03:21:51;99664.63;;;5.39;100.00
59337;BME280;45115;52.002;4.686;2022-11-18T03:24:25;99679.09;;;5.41;100.00
59337;BME280;45115;52.002;4.686;2022-11-18T03:27:00;99678.06;;;5.53;100.00
59337;BME280;45115;52.002;4.686;2022-11-18T03:29:34;99678.03;;;5.48;100.00
59337;BME280;45115;52.002;4.686;2022-11-18T03:32:05;99688.88;;;5.56;100.00
59337;BME280;45115;52.002;4.686;2022-11-18T03:34:38;99661.47;;;5.37;100.00
59337;BME280;45115;52.002;4.686;2022-11-18T03:37:10;99669.91;;;5.44;100.00
59337;BME280;45115;52.002;4.686;2022-11-18T03:39:41;99690.94;;;5.54;100.00
59337;BME280;45115;52.002;4.686;2022-11-18T03:42:11;99701.75;;;5.58;100.00
59337;BME280;45115;52.002;4.686;2022-11-18T03:44:43;99690.94;;;5.44;100.00
59337;BME280;45115;52.002;4.686;2022-11-18T03:47:18;99689.34;;;5.32;100.00
59337;BME280;45115;52.002;4.686;2022-11-18T03:49:50;99697.25;;;5.48;100.00
59337;BME280;45115;52.002;4.686;2022-11-18T03:52:21;99708.31;;;5.50;100.00
59337;BME280;45115;52.002;4.686;2022-11-18T03:54:51;99701.72;;;5.37;100.00
59337;BME280;45115;52.002;4.686;2022-11-18T03:57:22;99697.50;;;5.36;100.00
59337;BME280;45115;52.002;4.686;2022-11-18T03:59:54;99709.38;;;5.54;100.00
59337;BME280;45115;52.002;4.686;2022-11-18T04:02:27;99692.00;;;5.48;100.00
59337;BME280;45115;52.002;4.686;2022-11-18T04:04:54;99715.19;;;5.62;100.00
59337;BME280;45115;52.002;4.686;2022-11-18T04:07:27;99700.41;;;5.55;100.00
59337;BME280;45115;52.002;4.686;2022-11-18T04:09:58;99726.75;;;5.76;100.00
59337;BME280;45115;52.002;4.686;2022-11-18T04:12:30;99732.56;;;5.83;100.00
59337;BME280;45115;52.002;4.686;2022-11-18T04:14:59;99728.06;;;5.84;100.00
59337;BME280;45115;52.002;4.686;2022-11-18T04:17:28;99734.94;;;5.90;100.00
59337;BME280;45115;52.002;4.686;2022-11-18T04:19:54;99735.72;;;5.85;100.00
59337;BME280;45115;52.002;4.686;2022-11-18T04:22:21;99739.91;;;5.81;100.00
59337;BME280;45115;52.002;4.686;2022-11-18T04:24:48;99731.75;;;5.78;100.00
59337;BME280;45115;52.002;4.686;2022-11-18T04:27:15;99735.69;;;5.75;100.00
59337;BME280;45115;52.002;4.686;2022-11-18T04:29:41;99748.59;;;5.66;100.00
59337;BME280;45115;52.002;4.686;2022-11-18T04:32:08;99741.22;;;5.63;100.00
59337;BME280;45115;52.002;4.686;2022-11-18T04:34:36;99754.94;;;5.76;100.00
59337;BME280;45115;52.002;4.686;2022-11-18T04:37:03;99744.66;;;5.79;100.00
59337;BME280;45115;52.002;4.686;2022-11-18T04:39:30;99745.97;;;5.66;100.00
59337;BME280;45115;52.002;4.686;2022-11-18T04:41:57;99732.53;;;5.57;100.00
59337;BME280;45115;52.002;4.686;2022-11-18T04:44:25;99765.69;;;5.64;100.00
59337;BME280;45115;52.002;4.686;2022-11-18T04:46:53;99763.06;;;5.74;100.00
59337;BME280;45115;52.002;4.686;2022-11-18T04:49:21;99767.81;;;5.67;100.00
59337;BME280;45115;52.002;4.686;2022-11-18T04:51:50;99754.66;;;5.62;100.00
59337;BME280;45115;52.002;4.686;2022-11-18T04:54:19;99782.00;;;5.66;100.00
59337;BME280;45115;52.002;4.686;2022-11-18T04:56:46;99793.06;;;5.68;100.00
59337;BME280;45115;52.002;4.686;2022-11-18T04:59:13;99797.81;;;5.71;100.00
59337;BME280;45115;52.002;4.686;2022-11-18T05:01:41;99788.31;;;5.65;100.00
59337;BME280;45115;52.002;4.686;2022-11-18T05:04:11;99802.56;;;5.74;100.00
59337;BME280;45115;52.002;4.686;2022-11-18T05:06:39;99812.81;;;5.76;100.00
59337;BME280;45115;52.002;4.686;2022-11-18T05:09:10;99801.47;;;5.70;100.00
59337;BME280;45115;52.002;4.686;2022-11-18T05:11:36;99801.47;;;5.70;100.00
59337;BME280;45115;52.002;4.686;2022-11-18T05:14:20;99809.13;;;5.66;100.00
59337;BME280;45115;52.002;4.686;2022-11-18T05:16:47;99809.38;;;5.70;100.00
59337;BME280;45115;52.002;4.686;2022-11-18T05:19:14;99813.31;;;5.67;100.00
59337;BME280;45115;52.002;4.686;2022-11-18T05:21:41;99810.44;;;5.64;100.00
59337;BME280;45115;52.002;4.686;2022-11-18T05:24:09;99821.78;;;5.75;100.00
59337;BME280;45115;52.002;4.686;2022-11-18T05:26:36;99824.66;;;5.73;100.00
59337;BME280;45115;52.002;4.686;2022-11-18T05:29:03;99799.88;;;5.58;100.00
59337;BME280;45115;52.002;4.686;2022-11-18T05:31:33;99823.84;;;5.67;100.00
59337;BME280;45115;52.002;4.686;2022-11-18T05:33:59;99825.97;;;5.65;100.00
59337;BME280;45115;52.002;4.686;2022-11-18T05:36:27;99820.66;;;5.55;100.00
59337;BME280;45115;52.002;4.686;2022-11-18T05:38:53;99826.69;;;5.55;100.00
59337;BME280;45115;52.002;4.686;2022-11-18T05:41:21;99827.47;;;5.45;100.00
59337;BME280;45115;52.002;4.686;2022-11-18T05:44:05;99827.19;;;5.37;100.00
59337;BME280;45115;52.002;4.686;2022-11-18T05:46:32;99824.78;;;5.30;100.00
59337;BME280;45115;52.002;4.686;2022-11-18T05:48:59;99822.44;;;5.34;100.00
59337;BME280;45115;52.002;4.686;2022-11-18T05:51:26;99836.38;;;5.34;100.00
59337;BME280;45115;52.002;4.686;2022-11-18T05:53:53;99835.56;;;5.34;100.00
59337;BME280;45115;52.002;4.686;2022-11-18T05:56:24;99834.50;;;5.24;100.00
59337;BME280;45115;52.002;4.686;2022-11-18T05:58:53;99841.09;;;5.27;100.00
59337;BME280;45115;52.002;4.686;2022-11-18T06:01:22;99839.75;;;5.19;100.00
59337;BME280;45115;52.002;4.686;2022-11-18T06:03:50;99829.19;;;5.09;100.00
59337;BME280;45115;52.002;4.686;2022-11-18T06:06:19;99848.34;;;5.09;100.00
59337;BME280;45115;52.002;4.686;2022-11-18T06:08:50;99848.06;;;5.05;100.00
59337;BME280;45115;52.002;4.686;2022-11-18T06:11:18;99845.44;;;5.05;100.00
59337;BME280;45115;52.002;4.686;2022-11-18T06:13:52;99847.00;;;5.01;100.00
59337;BME280;45115;52.002;4.686;2022-11-18T06:16:23;99854.13;;;5.06;100.00
59337;BME280;45115;52.002;4.686;2022-11-18T06:18:52;99863.84;;;5.05;100.00
59337;BME280;45115;52.002;4.686;2022-11-18T06:21:19;99867.78;;;5.03;100.00
59337;BME280;45115;52.002;4.686;2022-11-18T06:23:46;99869.06;;;5.00;100.00
59337;BME280;45115;52.002;4.686;2022-11-18T06:26:13;99863.00;;;4.95;100.00
59337;BME280;45115;52.002;4.686;2022-11-18T06:28:42;99879.59;;;5.00;100.00
59337;BME280;45115;52.002;4.686;2022-11-18T06:31:12;99887.16;;;4.91;100.00
59337;BME280;45115;52.002;4.686;2022-11-18T06:33:40;99889.25;;;4.89;100.00
59337;BME280;45115;52.002;4.686;2022-11-18T06:36:08;99897.16;;;4.95;100.00
59337;BME280;45115;52.002;4.686;2022-11-18T06:38:34;99900.84;;;4.94;100.00
59337;BME280;45115;52.002;4.686;2022-11-18T06:41:01;99901.44;;;5.01;100.00
59337;BME280;45115;52.002;4.686;2022-11-18T06:43:28;99901.34;;;4.90;100.00
59337;BME280;45115;52.002;4.686;2022-11-18T06:46:04;99912.16;;;4.94;100.00
59337;BME280;45115;52.002;4.686;2022-11-18T06:48:50;99912.16;;;4.94;100.00
59337;BME280;45115;52.002;4.686;2022-11-18T06:51:17;99894.69;;;4.77;100.00
59337;BME280;45115;52.002;4.686;2022-11-18T06:53:44;99921.91;;;4.99;100.00
59337;BME280;45115;52.002;4.686;2022-11-18T06:56:13;99932.25;;;5.11;100.00
59337;BME280;45115;52.002;4.686;2022-11-18T06:58:40;99915.94;;;5.09;100.00
59337;BME280;45115;52.002;4.686;2022-11-18T07:01:08;99928.66;;;5.27;100.00
59337;BME280;45115;52.002;4.686;2022-11-18T07:03:36;99943.75;;;5.48;100.00
59337;BME280;45115;52.002;4.686;2022-11-18T07:06:04;99943.06;;;5.63;100.00
59337;BME280;45115;52.002;4.686;2022-11-18T07:08:33;99954.94;;;5.70;100.00
59337;BME280;45115;52.002;4.686;2022-11-18T07:11:00;99949.94;;;5.74;100.00
59337;BME280;45115;52.002;4.686;2022-11-18T07:13:26;99949.38;;;5.67;100.00
59337;BME280;45115;52.002;4.686;2022-11-18T07:15:53;99949.88;;;5.64;100.00
59337;BME280;45115;52.002;4.686;2022-11-18T07:18:19;99961.28;;;5.75;100.00
59337;BME280;45115;52.002;4.686;2022-11-18T07:20:46;99960.97;;;5.71;100.00
59337;BME280;45115;52.002;4.686;2022-11-18T07:23:14;99963.88;;;5.69;100.00
59337;BME280;45115;52.002;4.686;2022-11-18T07:25:41;99958.63;;;5.69;100.00
59337;BME280;45115;52.002;4.686;2022-11-18T07:28:08;99960.22;;;5.76;100.00
59337;BME280;45115;52.002;4.686;2022-11-18T07:30:35;99964.69;;;5.80;100.00
59337;BME280;45115;52.002;4.686;2022-11-18T07:33:01;99976.31;;;5.84;100.00
59337;BME280;45115;52.002;4.686;2022-11-18T07:35:28;99962.81;;;5.70;100.00
59337;BME280;45115;52.002;4.686;2022-11-18T07:37:54;99990.53;;;5.89;100.00
59337;BME280;45115;52.002;4.686;2022-11-18T07:40:22;100001.88;;;5.94;100.00
59337;BME280;45115;52.002;4.686;2022-11-18T07:42:49;100005.13;;;6.07;100.00
59337;BME280;45115;52.002;4.686;2022-11-18T07:45:22;100005.44;;;6.21;100.00
59337;BME280;45115;52.002;4.686;2022-11-18T07:47:49;100012.81;;;6.29;100.00
59337;BME280;45115;52.002;4.686;2022-11-18T07:50:16;100020.75;;;6.34;100.00
59337;BME280;45115;52.002;4.686;2022-11-18T07:52:43;100013.91;;;6.38;100.00
59337;BME280;45115;52.002;4.686;2022-11-18T07:55:09;100021.59;;;6.50;100.00
59337;BME280;45115;52.002;4.686;2022-11-18T07:57:37;100031.88;;;6.57;100.00
59337;BME280;45115;52.002;4.686;2022-11-18T08:00:05;100017.13;;;6.51;100.00
59337;BME280;45115;52.002;4.686;2022-11-18T08:02:37;100034.78;;;6.66;100.00
59337;BME280;45115;52.002;4.686;2022-11-18T08:05:04;100032.16;;;6.66;100.00
59337;BME280;45115;52.002;4.686;2022-11-18T08:07:31;100039.03;;;6.77;100.00
59337;BME280;45115;52.002;4.686;2022-11-18T08:09:58;100033.50;;;6.79;100.00
59337;BME280;45115;52.002;4.686;2022-11-18T08:12:24;100047.22;;;6.97;100.00
59337;BME280;45115;52.002;4.686;2022-11-18T08:14:52;100054.06;;;7.08;100.00
59337;BME280;45115;52.002;4.686;2022-11-18T08:17:19;100049.34;;;7.10;100.00
59337;BME280;45115;52.002;4.686;2022-11-18T08:19:46;100056.19;;;7.22;100.00
59337;BME280;45115;52.002;4.686;2022-11-18T08:22:12;100058.84;;;7.32;100.00
59337;BME280;45115;52.002;4.686;2022-11-18T08:24:41;100067.56;;;7.48;100.00
59337;BME280;45115;52.002;4.686;2022-11-18T08:27:08;100062.25;;;7.58;100.00
59337;BME280;45115;52.002;4.686;2022-11-18T08:29:34;100062.75;;;7.66;100.00
59337;BME280;45115;52.002;4.686;2022-11-18T08:32:03;100062.22;;;7.64;100.00
59337;BME280;45115;52.002;4.686;2022-11-18T08:34:30;100072.00;;;7.63;100.00
59337;BME280;45115;52.002;4.686;2022-11-18T08:36:57;100064.09;;;7.63;100.00
59337;BME280;45115;52.002;4.686;2022-11-18T08:39:24;100077.78;;;7.70;100.00
59337;BME280;45115;52.002;4.686;2022-11-18T08:41:50;100077.78;;;7.70;100.00
59337;BME280;45115;52.002;4.686;2022-11-18T08:44:17;100075.69;;;7.83;100.00
59337;BME280;45115;52.002;4.686;2022-11-18T08:46:44;100077.00;;;7.86;100.00
59337;BME280;45115;52.002;4.686;2022-11-18T08:49:12;100064.56;;;7.86;100.00
59337;BME280;45115;52.002;4.686;2022-11-18T08:51:39;100089.09;;;8.07;100.00
59337;BME280;45115;52.002;4.686;2022-11-18T08:54:06;100091.72;;;8.13;100.00
59337;BME280;45115;52.002;4.686;2022-11-18T08:56:32;100090.88;;;8.22;100.00
59337;BME280;45115;52.002;4.686;2022-11-18T08:58:59;100075.56;;;8.24;100.00
59337;BME280;45115;52.002;4.686;2022-11-18T09:01:25;100090.47;;;8.66;100.00
59337;BME280;45115;52.002;4.686;2022-11-18T09:03:52;100087.16;;;8.84;100.00
59337;BME280;45115;52.002;4.686;2022-11-18T09:06:22;100088.78;;;8.80;100.00
59337;BME280;45115;52.002;4.686;2022-11-18T09:08:49;100100.19;;;8.70;100.00
59337;BME280;45115;52.002;4.686;2022-11-18T09:11:18;100099.47;;;8.59;100.00
59337;BME280;45115;52.002;4.686;2022-11-18T09:13:45;100103.72;;;8.55;100.00
59337;BME280;45115;52.002;4.686;2022-11-18T09:16:11;100109.28;;;8.54;100.00
59337;BME280;45115;52.002;4.686;2022-11-18T09:18:38;100105.81;;;8.58;100.00
59337;BME280;45115;52.002;4.686;2022-11-18T09:21:06;100107.94;;;8.56;100.00
59337;BME280;45115;52.002;4.686;2022-11-18T09:23:36;100121.13;;;8.67;100.00
59337;BME280;45115;52.002;4.686;2022-11-18T09:26:04;100115.47;;;8.84;100.00
59337;BME280;45115;52.002;4.686;2022-11-18T09:28:32;100103.47;;;9.02;100.00
59337;BME280;45115;52.002;4.686;2022-11-18T09:31:02;100119.88;;;9.39;100.00
59337;BME280;45115;52.002;4.686;2022-11-18T09:33:29;100113.97;;;9.47;100.00
59337;BME280;45115;52.002;4.686;2022-11-18T09:35:56;100118.88;;;9.64;100.00
59337;BME280;45115;52.002;4.686;2022-11-18T09:38:23;100129.47;;;9.94;100.00
59337;BME280;45115;52.002;4.686;2022-11-18T09:40:56;100129.88;;;9.77;100.00
59337;BME280;45115;52.002;4.686;2022-11-18T09:43:29;100129.03;;;9.52;100.00
59337;BME280;45115;52.002;4.686;2022-11-18T09:46:10;100123.84;;;9.36;100.00
59337;BME280;45115;52.002;4.686;2022-11-18T09:48:44;100141.31;;;9.37;100.00
59337;BME280;45115;52.002;4.686;2022-11-18T09:51:33;100144.88;;;9.22;100.00
59337;BME280;45115;52.002;4.686;2022-11-18T09:54:03;100149.47;;;9.06;100.00
59337;BME280;45115;52.002;4.686;2022-11-18T09:56:32;100155.03;;;9.04;100.00
59337;BME280;45115;52.002;4.686;2022-11-18T09:58:59;100157.47;;;8.96;100.00
59337;BME280;45115;52.002;4.686;2022-11-18T10:01:26;100172.50;;;9.06;100.00
59337;BME280;45115;52.002;4.686;2022-11-18T10:03:52;100164.13;;;8.93;100.00
59337;BME280;45115;52.002;4.686;2022-11-18T10:06:23;100168.88;;;8.91;100.00
59337;BME280;45115;52.002;4.686;2022-11-18T10:09:03;100166.78;;;8.88;100.00
59337;BME280;45115;52.002;4.686;2022-11-18T10:11:40;100182.34;;;8.95;100.00
59337;BME280;45115;52.002;4.686;2022-11-18T10:14:21;100178.34;;;8.97;100.00
59337;BME280;45115;52.002;4.686;2022-11-18T10:16:58;100186.28;;;8.97;100.00
59337;BME280;45115;52.002;4.686;2022-11-18T10:19:33;100185.25;;;8.98;100.00
59337;BME280;45115;52.002;4.686;2022-11-18T10:22:12;100189.06;;;9.22;100.00
59337;BME280;45115;52.002;4.686;2022-11-18T10:24:42;100189.84;;;9.27;100.00
59337;BME280;45115;52.002;4.686;2022-11-18T10:27:13;100190.09;;;9.26;100.00
59337;BME280;45115;52.002;4.686;2022-11-18T10:29:41;100194.00;;;9.39;100.00
59337;BME280;45115;52.002;4.686;2022-11-18T10:32:11;100199.41;;;9.58;100.00
59337;BME280;45115;52.002;4.686;2022-11-18T10:34:46;100203.13;;;9.57;100.00
59337;BME280;45115;52.002;4.686;2022-11-18T10:37:25;100200.41;;;9.67;100.00
59337;BME280;45115;52.002;4.686;2022-11-18T10:39:55;100205.97;;;9.66;100.00
59337;BME280;45115;52.002;4.686;2022-11-18T10:42:27;100212.03;;;9.72;100.00
59337;BME280;45115;52.002;4.686;2022-11-18T10:44:55;100197.75;;;9.67;100.00
59337;BME280;45115;52.002;4.686;2022-11-18T10:47:25;100215.38;;;9.88;100.00
59337;BME280;45115;52.002;4.686;2022-11-18T10:49:54;100206.72;;;10.06;100.00
59337;BME280;45115;52.002;4.686;2022-11-18T10:52:21;100212.47;;;10.14;100.00
59337;BME280;45115;52.002;4.686;2022-11-18T10:55:06;100215.31;;;10.22;100.00
59337;BME280;45115;52.002;4.686;2022-11-18T10:57:39;100216.31;;;10.27;100.00
59337;BME280;45115;52.002;4.686;2022-11-18T11:00:32;100197.69;;;10.07;100.00
59337;BME280;45115;52.002;4.686;2022-11-18T11:02:59;100198.75;;;10.06;100.00
59337;BME280;45115;52.002;4.686;2022-11-18T11:05:26;100209.53;;;10.15;100.00
59337;BME280;45115;52.002;4.686;2022-11-18T11:08:00;100211.81;;;10.27;100.00
59337;BME280;45115;52.002;4.686;2022-11-18T11:10:27;100216.56;;;10.30;100.00
59337;BME280;45115;52.002;4.686;2022-11-18T11:12:58;100209.44;;;10.26;100.00
59337;BME280;45115;52.002;4.686;2022-11-18T11:15:34;100215.91;;;10.14;100.00
59337;BME280;45115;52.002;4.686;2022-11-18T11:18:04;100224.66;;;10.15;100.00
59337;BME280;45115;52.002;4.686;2022-11-18T11:20:50;100227.59;;;10.13;100.00
59337;BME280;45115;52.002;4.686;2022-11-18T11:23:17;100231.94;;;10.28;100.00
59337;BME280;45115;52.002;4.686;2022-11-18T11:25:47;100226.75;;;10.42;100.00
59337;BME280;45115;52.002;4.686;2022-11-18T11:28:25;100229.78;;;10.35;100.00
59337;BME280;45115;52.002;4.686;2022-11-18T11:31:05;100225.44;;;10.15;100.00
59337;BME280;45115;52.002;4.686;2022-11-18T11:33:38;100217.75;;;10.14;100.00
59337;BME280;45115;52.002;4.686;2022-11-18T11:36:31;100239.22;;;10.17;100.00
59337;BME280;45115;52.002;4.686;2022-11-18T11:39:11;100240.63;;;10.09;100.00
59337;BME280;45115;52.002;4.686;2022-11-18T11:41:50;100243.84;;;10.01;100.00
59337;BME280;45115;52.002;4.686;2022-11-18T11:44:31;100246.28;;;9.97;100.00
59337;BME280;45115;52.002;4.686;2022-11-18T11:47:12;100239.22;;;9.88;100.00
59337;BME280;45115;52.002;4.686;2022-11-18T11:50:01;100243.72;;;9.87;100.00
59337;BME280;45115;52.002;4.686;2022-11-18T11:52:38;100250.59;;;9.88;100.00
59337;BME280;45115;52.002;4.686;2022-11-18T11:55:15;100256.69;;;9.89;100.00
59337;BME280;45115;52.002;4.686;2022-11-18T11:57:55;100259.00;;;9.95;100.00
59337;BME280;45115;52.002;4.686;2022-11-18T12:00:28;100257.16;;;9.96;100.00
59337;BME280;45115;52.002;4.686;2022-11-18T12:03:08;100249.16;;;10.01;100.00
59337;BME280;45115;52.002;4.686;2022-11-18T12:05:39;100250.72;;;10.02;100.00
59337;BME280;45115;52.002;4.686;2022-11-18T12:08:11;100254.31;;;10.17;100.00
59337;BME280;45115;52.002;4.686;2022-11-18T12:10:45;100253.44;;;10.27;100.00
59337;BME280;45115;52.002;4.686;2022-11-18T12:16:09;100237.91;;;10.15;100.00
59337;BME280;45115;52.002;4.686;2022-11-18T12:18:41;100244.44;;;10.28;100.00
59337;BME280;45115;52.002;4.686;2022-11-18T12:21:51;100249.84;;;10.42;100.00
59337;BME280;45115;52.002;4.686;2022-11-18T12:24:36;100254.09;;;10.43;100.00
59337;BME280;45115;52.002;4.686;2022-11-18T12:27:09;100241.19;;;10.31;100.00
59337;BME280;45115;52.002;4.686;2022-11-18T12:32:29;100250.97;;;10.35;100.00
59337;BME280;45115;52.002;4.686;2022-11-18T12:35:01;100235.72;;;10.22;100.00
59337;BME280;45115;52.002;4.686;2022-11-18T12:37:56;100255.44;;;10.40;100.00
59337;BME280;45115;52.002;4.686;2022-11-18T12:40:44;100263.09;;;10.47;100.00
59337;BME280;45115;52.002;4.686;2022-11-18T12:46:47;100265.63;;;10.57;100.00
59337;BME280;45115;52.002;4.686;2022-11-18T12:52:48;100263.72;;;10.33;100.00
59337;BME280;45115;52.002;4.686;2022-11-18T12:57:59;100283.47;;;10.17;100.00
59337;BME280;45115;52.002;4.686;2022-11-18T13:00:32;100286.97;;;10.12;100.00
59337;BME280;45115;52.002;4.686;2022-11-18T13:03:24;100284.59;;;10.10;100.00
59337;BME280;45115;52.002;4.686;2022-11-18T13:06:17;100289.09;;;10.10;100.00
59337;BME280;45115;52.002;4.686;2022-11-18T13:08:54;100286.50;;;10.05;100.00
59337;BME280;45115;52.002;4.686;2022-11-18T13:11:21;100286.25;;;10.01;100.00
59337;BME280;45115;52.002;4.686;2022-11-18T13:14:13;100290.47;;;10.02;100.00
59337;BME280;45115;52.002;4.686;2022-11-18T13:16:58;100285.78;;;9.94;100.00
59337;BME280;45115;52.002;4.686;2022-11-18T13:19:42;100294.84;;;9.88;100.00
59337;BME280;45115;52.002;4.686;2022-11-18T13:22:16;100301.44;;;9.90;100.00
59337;BME280;45115;52.002;4.686;2022-11-18T13:25:02;100301.50;;;9.85;100.00
59337;BME280;45115;52.002;4.686;2022-11-18T13:27:38;100306.00;;;9.84;100.00
59337;BME280;45115;52.002;4.686;2022-11-18T13:30:12;100299.13;;;9.83;100.00